createdAt,value
2018-11-27T00:00:09.162Z,3.50
2018-11-27T00:02:36.997Z,3.50
2018-11-27T00:05:05.443Z,3.50
2018-11-27T00:07:33.124Z,3.60
2018-11-27T00:10:00.791Z,3.50
2018-11-27T00:12:28.570Z,3.60
2018-11-27T00:14:56.271Z,3.60
2018-11-27T00:17:23.958Z,3.70
2018-11-27T00:19:51.733Z,3.80
2018-11-27T00:22:19.489Z,3.60
2018-11-27T00:24:47.165Z,3.50
2018-11-27T00:27:14.854Z,3.50
2018-11-27T00:29:42.611Z,3.50
2018-11-27T00:32:10.385Z,3.50
2018-11-27T00:34:38.109Z,3.40
2018-11-27T00:37:05.869Z,3.30
2018-11-27T00:39:33.548Z,3.30
2018-11-27T00:42:01.311Z,3.40
2018-11-27T00:44:29.088Z,3.40
2018-11-27T00:46:56.807Z,3.30
2018-11-27T00:49:24.537Z,3.30
2018-11-27T00:51:52.356Z,3.30
2018-11-27T00:54:20.089Z,3.30
2018-11-27T00:56:48.386Z,3.20
2018-11-27T00:59:17.056Z,3.30
2018-11-27T01:01:44.836Z,3.20
2018-11-27T01:04:12.538Z,3.40
2018-11-27T01:06:40.222Z,3.20
2018-11-27T01:09:08.621Z,3.20
2018-11-27T01:11:36.827Z,3.40
2018-11-27T01:14:04.844Z,3.50
2018-11-27T01:16:32.641Z,3.50
2018-11-27T01:19:00.377Z,3.40
2018-11-27T01:21:28.125Z,3.40
2018-11-27T01:23:55.865Z,3.40
2018-11-27T01:26:23.618Z,3.50
2018-11-27T01:28:51.352Z,3.50
2018-11-27T01:31:19.121Z,3.50
2018-11-27T01:33:46.815Z,3.40
2018-11-27T01:36:14.572Z,3.40
2018-11-27T01:38:42.257Z,3.50
2018-11-27T01:41:09.968Z,3.50
2018-11-27T01:43:37.661Z,3.50
2018-11-27T01:46:06.464Z,3.50
2018-11-27T01:48:34.865Z,3.50
2018-11-27T01:51:02.518Z,3.50
2018-11-27T01:53:30.146Z,3.50
2018-11-27T01:55:57.809Z,3.60
2018-11-27T01:58:25.561Z,3.60
2018-11-27T02:00:53.258Z,3.60
2018-11-27T02:03:20.948Z,3.60
2018-11-27T02:05:48.743Z,3.60
2018-11-27T02:08:16.549Z,3.50
2018-11-27T02:10:44.271Z,3.60
2018-11-27T02:13:11.936Z,3.60
2018-11-27T02:15:39.664Z,3.60
2018-11-27T02:18:07.383Z,3.60
2018-11-27T02:20:36.263Z,3.50
2018-11-27T02:23:04.341Z,3.60
2018-11-27T02:25:32.105Z,3.50
2018-11-27T02:27:59.900Z,3.40
2018-11-27T02:30:28.179Z,3.40
2018-11-27T02:32:56.036Z,3.40
2018-11-27T02:35:24.865Z,3.30
2018-11-27T02:37:55.735Z,3.40
2018-11-27T02:40:23.490Z,3.50
2018-11-27T02:42:51.271Z,3.40
2018-11-27T02:45:19.986Z,3.40
2018-11-27T02:47:49.120Z,3.40
2018-11-27T02:50:18.082Z,3.40
2018-11-27T02:52:45.905Z,3.50
2018-11-27T02:55:15.111Z,3.50
2018-11-27T02:57:42.884Z,3.50
2018-11-27T03:00:13.330Z,3.30
2018-11-27T03:02:41.074Z,3.30
2018-11-27T03:05:34.276Z,3.30
2018-11-27T03:08:02.100Z,3.40
2018-11-27T03:10:29.835Z,3.20
2018-11-27T03:12:57.591Z,3.30
2018-11-27T03:15:25.318Z,3.00
2018-11-27T03:17:53.048Z,3.10
2018-11-27T03:20:20.681Z,3.10
2018-11-27T03:22:48.340Z,3.20
2018-11-27T03:25:18.333Z,3.10
2018-11-27T03:27:47.543Z,3.10
2018-11-27T03:30:17.579Z,3.20
2018-11-27T03:32:45.302Z,3.30
2018-11-27T03:35:14.313Z,3.30
2018-11-27T03:37:42.402Z,3.40
2018-11-27T03:40:16.834Z,3.40
2018-11-27T03:42:44.570Z,3.30
2018-11-27T03:45:13.454Z,3.30
2018-11-27T03:47:41.973Z,3.40
2018-11-27T03:50:13.484Z,3.30
2018-11-27T03:52:41.654Z,3.50
2018-11-27T03:55:10.910Z,3.50
2018-11-27T03:57:38.627Z,3.40
2018-11-27T04:00:15.203Z,3.30
2018-11-27T04:02:43.717Z,3.30
2018-11-27T04:05:12.432Z,3.30
2018-11-27T04:07:40.239Z,3.30
2018-11-27T04:10:12.456Z,3.20
2018-11-27T04:12:40.230Z,3.30
2018-11-27T04:15:08.102Z,3.30
2018-11-27T04:17:36.960Z,3.30
2018-11-27T04:20:06.188Z,3.30
2018-11-27T04:22:33.955Z,3.20
2018-11-27T04:25:01.624Z,3.20
2018-11-27T04:27:29.483Z,3.10
2018-11-27T04:29:57.218Z,3.00
2018-11-27T04:32:24.936Z,3.10
2018-11-27T04:34:52.621Z,3.10
2018-11-27T04:37:20.354Z,3.10
2018-11-27T04:39:48.107Z,3.00
2018-11-27T04:42:15.856Z,3.00
2018-11-27T04:44:43.635Z,3.00
2018-11-27T04:47:11.486Z,3.00
2018-11-27T04:49:39.290Z,3.00
2018-11-27T04:52:07.134Z,3.00
2018-11-27T04:54:34.929Z,3.00
2018-11-27T04:57:02.824Z,2.90
2018-11-27T04:59:30.557Z,2.90
2018-11-27T05:01:58.324Z,2.90
2018-11-27T05:04:26.129Z,2.90
2018-11-27T05:06:53.817Z,2.80
2018-11-27T05:09:22.210Z,2.70
2018-11-27T05:11:49.922Z,2.80
2018-11-27T05:14:17.758Z,2.70
2018-11-27T05:16:45.472Z,2.70
2018-11-27T05:19:13.296Z,2.60
2018-11-27T05:21:41.057Z,2.70
2018-11-27T05:24:09.036Z,2.70
2018-11-27T05:26:36.860Z,2.70
2018-11-27T05:29:05.329Z,2.60
2018-11-27T05:31:33.221Z,2.60
2018-11-27T05:34:00.964Z,2.50
2018-11-27T05:36:28.677Z,2.50
2018-11-27T05:38:56.858Z,2.50
2018-11-27T05:41:24.753Z,2.50
2018-11-27T05:43:52.530Z,2.50
2018-11-27T05:46:20.217Z,2.40
2018-11-27T05:48:47.962Z,2.50
2018-11-27T05:51:15.688Z,2.50
2018-11-27T05:53:43.376Z,2.40
2018-11-27T05:56:11.073Z,2.40
2018-11-27T05:58:38.764Z,2.40
2018-11-27T06:01:06.530Z,2.10
2018-11-27T06:03:34.207Z,2.20
2018-11-27T06:06:01.981Z,2.20
2018-11-27T06:08:29.721Z,2.20
2018-11-27T06:10:57.525Z,2.10
2018-11-27T06:13:25.201Z,2.10
2018-11-27T06:15:52.908Z,2.10
2018-11-27T06:18:20.557Z,2.20
2018-11-27T06:20:48.272Z,2.10
2018-11-27T06:23:15.995Z,2.00
2018-11-27T06:25:43.690Z,2.00
2018-11-27T06:28:11.407Z,2.00
2018-11-27T06:30:39.235Z,1.90
2018-11-27T06:33:06.972Z,1.90
2018-11-27T06:35:37.547Z,1.90
2018-11-27T06:38:07.816Z,1.90
2018-11-27T06:40:36.232Z,1.90
2018-11-27T06:43:10.278Z,1.80
2018-11-27T06:45:39.573Z,1.80
2018-11-27T06:48:07.890Z,1.80
2018-11-27T06:50:35.580Z,1.90
2018-11-27T06:53:04.158Z,1.90
2018-11-27T06:55:31.923Z,2.00
2018-11-27T06:57:59.824Z,2.00
2018-11-27T07:00:28.410Z,2.00
2018-11-27T07:02:57.344Z,2.00
2018-11-27T07:05:25.108Z,1.80
2018-11-27T07:07:52.941Z,1.80
2018-11-27T07:10:29.468Z,1.80
2018-11-27T07:13:15.717Z,1.80
2018-11-27T07:15:43.417Z,1.80
2018-11-27T07:18:11.124Z,1.90
2018-11-27T07:20:38.948Z,1.70
2018-11-27T07:23:07.132Z,1.60
2018-11-27T07:25:35.374Z,1.50
2018-11-27T07:28:03.081Z,1.60
2018-11-27T07:30:30.837Z,1.50
2018-11-27T07:32:58.658Z,1.50
2018-11-27T07:35:26.380Z,1.60
2018-11-27T07:37:54.114Z,1.70
2018-11-27T07:40:26.389Z,1.80
2018-11-27T07:42:57.757Z,1.90
2018-11-27T07:45:25.581Z,1.70
2018-11-27T07:47:53.314Z,1.80
2018-11-27T07:50:21.154Z,1.80
2018-11-27T07:52:48.917Z,1.70
2018-11-27T07:55:18.123Z,1.70
2018-11-27T07:57:45.870Z,1.80
2018-11-27T08:00:16.158Z,1.80
2018-11-27T08:02:45.893Z,1.80
2018-11-27T08:05:15.599Z,1.70
2018-11-27T08:07:47.281Z,1.70
2018-11-27T08:10:18.935Z,1.90
2018-11-27T08:12:46.659Z,1.90
2018-11-27T08:15:17.925Z,1.80
2018-11-27T08:17:45.583Z,1.80
2018-11-27T08:20:24.946Z,1.80
2018-11-27T08:22:52.656Z,1.60
2018-11-27T08:25:20.393Z,1.60
2018-11-27T08:27:48.190Z,1.70
2018-11-27T08:30:17.254Z,1.60
2018-11-27T08:32:45.139Z,1.50
2018-11-27T08:35:20.373Z,1.60
2018-11-27T08:37:49.649Z,1.70
2018-11-27T08:40:19.153Z,1.60
2018-11-27T08:42:46.888Z,1.70
2018-11-27T08:45:22.959Z,1.80
2018-11-27T08:47:52.039Z,1.80
2018-11-27T08:50:21.461Z,1.80
2018-11-27T08:52:56.699Z,1.60
2018-11-27T08:55:42.131Z,1.70
2018-11-27T08:58:17.095Z,1.60
2018-11-27T09:00:44.858Z,1.60
2018-11-27T09:03:12.585Z,1.70
2018-11-27T09:05:40.278Z,1.80
2018-11-27T09:08:08.009Z,1.80
2018-11-27T09:11:07.582Z,1.70
2018-11-27T09:13:35.351Z,1.80
2018-11-27T09:16:03.124Z,1.80
2018-11-27T09:18:38.305Z,1.80
2018-11-27T09:21:06.480Z,1.80
2018-11-27T09:23:34.302Z,1.70
2018-11-27T09:26:02.167Z,1.70
2018-11-27T09:28:29.885Z,1.80
2018-11-27T09:30:57.605Z,2.00
2018-11-27T09:33:25.285Z,1.90
2018-11-27T09:35:53.062Z,2.20
2018-11-27T09:38:22.616Z,2.20
2018-11-27T09:40:50.361Z,2.20
2018-11-27T09:43:18.295Z,2.30
2018-11-27T09:46:14.744Z,2.40
2018-11-27T09:48:42.597Z,2.50
2018-11-27T09:51:10.347Z,2.50
2018-11-27T09:53:37.997Z,2.50
2018-11-27T09:56:05.970Z,2.60
2018-11-27T09:58:33.904Z,2.50
2018-11-27T10:01:01.694Z,2.40
2018-11-27T10:03:29.466Z,2.60
2018-11-27T10:05:57.135Z,2.70
2018-11-27T10:08:24.842Z,2.70
2018-11-27T10:10:52.630Z,2.70
2018-11-27T10:13:20.347Z,2.50
2018-11-27T10:15:47.984Z,2.60
2018-11-27T10:18:15.669Z,2.60
2018-11-27T10:20:43.337Z,2.70
2018-11-27T10:23:13.304Z,2.80
2018-11-27T10:25:41.119Z,2.80
2018-11-27T10:28:08.798Z,2.60
2018-11-27T10:30:36.482Z,2.70
2018-11-27T10:33:07.006Z,2.80
2018-11-27T10:35:43.151Z,2.60
2018-11-27T10:38:10.813Z,2.80
2018-11-27T10:40:38.503Z,3.00
2018-11-27T10:43:06.220Z,2.90
2018-11-27T10:45:34.089Z,3.00
2018-11-27T10:48:01.817Z,2.90
2018-11-27T10:50:29.570Z,2.90
2018-11-27T10:52:57.336Z,2.70
2018-11-27T10:55:25.701Z,2.60
2018-11-27T10:57:53.334Z,2.90
2018-11-27T11:00:29.170Z,3.10
2018-11-27T11:03:03.203Z,3.20
2018-11-27T11:05:31.991Z,3.10
2018-11-27T11:08:00.604Z,3.40
2018-11-27T11:10:30.621Z,3.50
2018-11-27T11:12:59.076Z,3.80
2018-11-27T11:15:26.876Z,4.40
2018-11-27T11:17:54.643Z,4.30
2018-11-27T11:20:23.102Z,4.50
2018-11-27T11:22:51.486Z,4.60
2018-11-27T11:25:21.063Z,5.20
2018-11-27T11:27:52.810Z,5.60
2018-11-27T11:30:22.024Z,6.10
2018-11-27T11:32:49.780Z,6.20
2018-11-27T11:35:18.477Z,6.20
2018-11-27T11:37:46.139Z,6.90
2018-11-27T11:40:18.646Z,7.30
2018-11-27T11:42:47.784Z,7.30
2018-11-27T11:45:16.706Z,7.20
2018-11-27T11:47:45.466Z,7.40
2018-11-27T11:50:32.938Z,7.00
2018-11-27T11:53:09.383Z,6.90
2018-11-27T11:55:37.095Z,6.70
2018-11-27T11:58:06.193Z,6.80
2018-11-27T12:00:37.018Z,7.30
2018-11-27T12:03:05.974Z,7.10
2018-11-27T12:05:34.128Z,6.60
2018-11-27T12:08:01.914Z,6.30
2018-11-27T12:10:30.224Z,6.20
2018-11-27T12:12:57.928Z,6.40
2018-11-27T12:15:26.225Z,6.90
2018-11-27T12:17:56.785Z,6.60
2018-11-27T12:20:24.490Z,6.30
2018-11-27T12:22:53.007Z,5.80
2018-11-27T12:25:24.244Z,6.10
2018-11-27T12:27:49.272Z,5.50
2018-11-27T12:30:21.839Z,5.40
2018-11-27T12:32:50.521Z,5.60
2018-11-27T12:35:19.705Z,5.50
2018-11-27T12:37:47.402Z,5.60
2018-11-27T12:40:23.719Z,5.40
2018-11-27T12:42:53.981Z,5.20
2018-11-27T12:45:24.110Z,5.10
2018-11-27T12:47:52.645Z,4.70
2018-11-27T12:50:24.796Z,4.70
2018-11-27T12:52:53.330Z,4.70
2018-11-27T12:55:22.711Z,4.60
2018-11-27T12:57:50.457Z,4.10
2018-11-27T13:00:22.035Z,3.90
2018-11-27T13:02:50.537Z,3.80
2018-11-27T13:05:26.948Z,3.80
2018-11-27T13:07:59.290Z,3.70
2018-11-27T13:10:26.967Z,3.60
2018-11-27T13:12:54.695Z,3.50
2018-11-27T13:15:22.462Z,3.60
2018-11-27T13:17:52.889Z,3.50
2018-11-27T13:20:20.745Z,3.60
2018-11-27T13:22:49.973Z,3.50
2018-11-27T13:25:20.068Z,3.50
2018-11-27T13:27:48.861Z,3.50
2018-11-27T13:30:29.079Z,3.50
2018-11-27T13:33:03.762Z,3.40
2018-11-27T13:35:31.522Z,3.30
2018-11-27T13:38:00.174Z,3.30
2018-11-27T13:40:27.898Z,3.40
2018-11-27T13:42:55.611Z,3.30
2018-11-27T13:45:24.083Z,3.30
2018-11-27T13:47:51.751Z,3.20
2018-11-27T13:50:19.477Z,3.00
2018-11-27T13:52:47.693Z,3.20
2018-11-27T13:55:18.769Z,2.90
2018-11-27T13:57:47.958Z,2.70
2018-11-27T14:00:18.887Z,2.80
2018-11-27T14:02:48.987Z,2.70
2018-11-27T14:05:19.286Z,2.90
2018-11-27T14:07:47.023Z,2.90
2018-11-27T14:10:15.681Z,2.60
2018-11-27T14:12:44.479Z,2.50
2018-11-27T14:15:21.635Z,2.50
2018-11-27T14:17:51.061Z,2.40
2018-11-27T14:20:18.914Z,2.30
2018-11-27T14:22:48.555Z,2.30
2018-11-27T14:25:16.380Z,2.10
2018-11-27T14:27:44.605Z,2.00
2018-11-27T14:30:18.394Z,1.90
2018-11-27T14:32:48.024Z,1.90
2018-11-27T14:35:17.001Z,1.90
2018-11-27T14:37:46.110Z,1.90
2018-11-27T14:40:16.396Z,1.70
2018-11-27T14:42:44.989Z,1.70
2018-11-27T14:45:17.246Z,1.70
2018-11-27T14:47:46.940Z,1.60
2018-11-27T14:50:14.814Z,1.60
2018-11-27T14:52:43.404Z,1.50
2018-11-27T14:55:16.199Z,1.30
2018-11-27T14:57:44.115Z,1.30
2018-11-27T15:00:14.682Z,1.20
2018-11-27T15:02:43.223Z,1.20
2018-11-27T15:05:13.594Z,1.10
2018-11-27T15:07:42.899Z,1.00
2018-11-27T15:10:11.907Z,1.10
2018-11-27T15:12:40.175Z,1.10
2018-11-27T15:15:11.150Z,1.00
2018-11-27T15:17:39.518Z,1.00
2018-11-27T15:20:14.100Z,1.00
2018-11-27T15:22:41.861Z,1.00
2018-11-27T15:25:10.510Z,0.90
2018-11-27T15:27:38.742Z,0.90
2018-11-27T15:30:14.134Z,0.90
2018-11-27T15:32:42.266Z,0.80
2018-11-27T15:35:12.195Z,0.90
2018-11-27T15:37:40.693Z,0.90
2018-11-27T15:40:13.007Z,0.80
2018-11-27T15:42:42.542Z,0.80
2018-11-27T15:45:21.201Z,0.80
2018-11-27T15:47:49.193Z,0.80
2018-11-27T15:50:17.160Z,0.70
2018-11-27T15:52:44.949Z,0.70
2018-11-27T15:55:18.321Z,0.70
2018-11-27T15:57:47.720Z,0.70
2018-11-27T16:00:17.617Z,0.60
2018-11-27T16:02:45.687Z,0.60
2018-11-27T16:05:14.253Z,0.60
2018-11-27T16:07:42.015Z,0.60
2018-11-27T16:10:13.299Z,0.60
2018-11-27T16:12:41.037Z,0.60
2018-11-27T16:15:15.355Z,0.60
2018-11-27T16:17:43.507Z,0.60
2018-11-27T16:20:14.880Z,0.50
2018-11-27T16:22:42.577Z,0.50
2018-11-27T16:25:13.002Z,0.50
2018-11-27T16:27:40.815Z,0.50
2018-11-27T16:30:14.139Z,0.50
2018-11-27T16:32:41.875Z,0.50
2018-11-27T16:35:11.166Z,0.40
2018-11-27T16:37:39.402Z,0.40
2018-11-27T16:40:14.081Z,0.40
2018-11-27T16:42:41.793Z,0.40
2018-11-27T16:45:14.313Z,0.40
2018-11-27T16:47:42.762Z,0.40
2018-11-27T16:50:12.166Z,0.30
2018-11-27T16:52:40.028Z,0.30
2018-11-27T16:55:10.898Z,0.30
2018-11-27T16:57:38.748Z,0.20
2018-11-27T17:00:25.982Z,0.20
2018-11-27T17:02:57.202Z,0.20
2018-11-27T17:05:26.699Z,0.10
2018-11-27T17:07:54.517Z,0.20
2018-11-27T17:10:22.370Z,0.20
2018-11-27T17:12:52.885Z,0.20
2018-11-27T17:15:22.702Z,0.20
2018-11-27T17:17:50.439Z,0.20
2018-11-27T17:20:35.293Z,0.20
2018-11-27T17:23:09.419Z,0.10
2018-11-27T17:25:37.226Z,0.00
2018-11-27T17:28:23.419Z,0.00
2018-11-27T17:31:24.102Z,0.00
2018-11-27T17:34:01.391Z,0.10
2018-11-27T17:36:29.100Z,0.10
2018-11-27T17:38:57.195Z,0.00
2018-11-27T17:41:24.946Z,-0.10
2018-11-27T17:43:53.587Z,-0.10
2018-11-27T17:46:20.708Z,-0.10
2018-11-27T17:48:48.496Z,-0.10
2018-11-27T17:51:16.577Z,0.00
2018-11-27T17:53:44.347Z,-0.10
2018-11-27T17:56:12.248Z,-0.10
2018-11-27T17:58:40.018Z,-0.10
2018-11-27T18:01:07.935Z,-0.20
2018-11-27T18:03:36.057Z,-0.10
2018-11-27T18:06:03.897Z,-0.10
2018-11-27T18:08:31.746Z,-0.10
2018-11-27T18:10:59.469Z,-0.20
2018-11-27T18:13:27.230Z,-0.20
2018-11-27T18:15:54.924Z,-0.20
2018-11-27T18:18:23.422Z,-0.20
2018-11-27T18:20:51.147Z,-0.30
2018-11-27T18:23:18.958Z,-0.30
2018-11-27T18:25:46.695Z,-0.30
2018-11-27T18:28:14.492Z,-0.40
2018-11-27T18:30:42.201Z,-0.50
2018-11-27T18:33:09.853Z,-0.60
2018-11-27T18:35:38.067Z,-0.60
2018-11-27T18:38:14.844Z,-0.60
2018-11-27T18:40:43.981Z,-0.60
2018-11-27T18:43:11.707Z,-0.70
2018-11-27T18:45:39.340Z,-0.70
2018-11-27T18:48:07.084Z,-0.70
2018-11-27T18:50:35.811Z,-0.70
2018-11-27T18:53:04.021Z,-0.70
2018-11-27T18:55:31.820Z,-0.80
2018-11-27T18:58:06.347Z,-0.80
2018-11-27T19:00:34.449Z,-0.80
2018-11-27T19:03:02.501Z,-0.80
2018-11-27T19:05:30.736Z,-0.90
2018-11-27T19:07:58.461Z,-1.00
2018-11-27T19:10:29.543Z,-1.20
2018-11-27T19:12:57.493Z,-1.20
2018-11-27T19:15:47.092Z,-1.20
2018-11-27T19:18:25.969Z,-1.30
2018-11-27T19:20:53.798Z,-1.30
2018-11-27T19:23:23.686Z,-1.40
2018-11-27T19:25:51.309Z,-1.40
2018-11-27T19:28:19.003Z,-1.40
2018-11-27T19:30:47.524Z,-1.50
2018-11-27T19:33:15.397Z,-1.50
2018-11-27T19:35:43.393Z,-1.50
2018-11-27T19:38:14.243Z,-1.50
2018-11-27T19:40:42.603Z,-1.60
2018-11-27T19:43:11.057Z,-1.60
2018-11-27T19:45:42.241Z,-1.60
2018-11-27T19:48:13.939Z,-1.70
2018-11-27T19:50:45.520Z,-1.70
2018-11-27T19:53:33.968Z,-1.80
2018-11-27T19:56:10.553Z,-1.70
2018-11-27T19:58:44.081Z,-1.70
2018-11-27T20:01:14.255Z,-1.80
2018-11-27T20:03:42.210Z,-1.70
2018-11-27T20:06:10.384Z,-1.70
2018-11-27T20:08:38.191Z,-1.80
2018-11-27T20:11:06.202Z,-1.80
2018-11-27T20:13:34.161Z,-2.00
2018-11-27T20:16:02.037Z,-2.00
2018-11-27T20:18:29.909Z,-2.00
2018-11-27T20:20:57.750Z,-2.00
2018-11-27T20:23:25.658Z,-2.00
2018-11-27T20:25:53.543Z,-2.00
2018-11-27T20:28:22.375Z,-2.00
2018-11-27T20:30:50.300Z,-2.00
2018-11-27T20:33:18.063Z,-2.00
2018-11-27T20:35:46.396Z,-2.00
2018-11-27T20:38:14.133Z,-2.00
2018-11-27T20:40:42.242Z,-2.10
2018-11-27T20:43:10.638Z,-2.10
2018-11-27T20:45:38.362Z,-2.20
2018-11-27T20:48:23.915Z,-2.10
2018-11-27T20:50:52.443Z,-2.10
2018-11-27T20:53:20.429Z,-2.20
2018-11-27T20:55:48.945Z,-2.30
2018-11-27T20:58:16.750Z,-2.30
2018-11-27T21:00:46.966Z,-2.30
2018-11-27T21:03:16.001Z,-2.40
2018-11-27T21:05:43.865Z,-2.50
2018-11-27T21:08:16.369Z,-2.40
2018-11-27T21:10:44.301Z,-2.50
2018-11-27T21:13:13.469Z,-2.50
2018-11-27T21:15:43.783Z,-2.50
2018-11-27T21:18:12.851Z,-2.40
2018-11-27T21:20:44.346Z,-2.50
2018-11-27T21:23:13.234Z,-2.40
2018-11-27T21:25:42.845Z,-2.50
2018-11-27T21:28:15.118Z,-2.60
2018-11-27T21:30:46.076Z,-2.70
2018-11-27T21:33:15.394Z,-2.80
2018-11-27T21:35:43.455Z,-2.80
2018-11-27T21:38:15.480Z,-2.80
2018-11-27T21:40:44.479Z,-2.70
2018-11-27T21:43:15.969Z,-2.80
2018-11-27T21:45:46.554Z,-2.80
2018-11-27T21:48:15.173Z,-2.80
2018-11-27T21:50:43.650Z,-2.80
2018-11-27T21:53:12.334Z,-2.70
2018-11-27T21:55:41.361Z,-2.70
2018-11-27T21:58:09.293Z,-2.70
2018-11-27T22:00:39.434Z,-2.70
2018-11-27T22:03:07.975Z,-2.80
2018-11-27T22:05:36.069Z,-2.80
2018-11-27T22:08:05.543Z,-2.80
2018-11-27T22:10:33.969Z,-2.80
2018-11-27T22:13:01.725Z,-2.80
2018-11-27T22:15:34.647Z,-2.80
2018-11-27T22:18:03.789Z,-2.90
2018-11-27T22:20:31.457Z,-2.80
2018-11-27T22:22:59.135Z,-2.90
2018-11-27T22:25:27.086Z,-2.90
2018-11-27T22:27:54.862Z,-2.90
2018-11-27T22:30:22.727Z,-2.90
2018-11-27T22:32:53.092Z,-2.90
2018-11-27T22:35:21.234Z,-2.90
2018-11-27T22:37:48.880Z,-2.90
2018-11-27T22:40:18.336Z,-2.90
2018-11-27T22:42:46.836Z,-3.00
2018-11-27T22:45:35.317Z,-3.10
2018-11-27T22:48:03.093Z,-3.10
2018-11-27T22:50:31.016Z,-3.10
2018-11-27T22:52:58.990Z,-3.20
2018-11-27T22:55:27.023Z,-3.20
2018-11-27T22:57:54.698Z,-3.20
2018-11-27T23:00:32.523Z,-3.20
2018-11-27T23:03:00.471Z,-3.20
2018-11-27T23:05:28.299Z,-3.20
2018-11-27T23:07:56.108Z,-3.20
2018-11-27T23:10:26.632Z,-3.20
2018-11-27T23:12:54.412Z,-3.20
2018-11-27T23:15:22.153Z,-3.20
2018-11-27T23:17:49.859Z,-3.20
2018-11-27T23:20:18.371Z,-3.20
2018-11-27T23:22:46.166Z,-3.20
2018-11-27T23:25:15.321Z,-3.20
2018-11-27T23:27:42.967Z,-3.20
2018-11-27T23:30:21.081Z,-3.30
2018-11-27T23:32:48.825Z,-3.30
2018-11-27T23:35:16.841Z,-3.20
2018-11-27T23:37:44.548Z,-3.30
2018-11-27T23:40:15.033Z,-3.30
2018-11-27T23:42:43.068Z,-3.20
2018-11-27T23:45:15.028Z,-3.20
2018-11-27T23:47:42.702Z,-3.20
2018-11-27T23:50:12.890Z,-3.20
2018-11-27T23:52:40.834Z,-3.10
2018-11-27T23:55:09.933Z,-3.10
2018-11-27T23:57:37.842Z,-3.20
